Terminal Aerodrome Forecast
Issued by NWS Detroit/Pontiac, MI

Home | Current Version | Previous Version | Text Only | Print | Product List | Glossary On
Versions: 1 2 3 4 5 6 7 8 9 10 11 12 13 14 15 16 17 18 19 20 21 22 23 24 25
000
FTUS43 KDTX 282112 AAA
TAFDTW
TAF AMD
KDTW 282112Z 2821/2924 VRB03KT P6SM SKC
     FM291400 19014G22KT P6SM OVC200
     FM291800 19018G28KT P6SM OVC150
     FM292100 20019G29KT 5SM -SHRA OVC035=

USA.gov is the U.S. government's official web portal to all federal, state and local government web resources and services.